Stations météo

réclame
Mon MeteoGroup
Kleiner Feldberg/Taunus, Allemagne (10635): Température de l'air & dewpoint: 11.12.2018 07:00:00 - 17.12.2018 07:00:00 (CET)Kleiner Feldberg/Taunus, Allemagne (10635): Température de l'air 5cm & Température de l'air -5cm: 11.12.2018 07:00:00 - 17.12.2018 07:00:00 (CET)Kleiner Feldberg/Taunus, Allemagne (10635): Température de l'air -20cm & Température de l'air -100cm: 11.12.2018 07:00:00 - 17.12.2018 07:00:00 (CET)Kleiner Feldberg/Taunus, Allemagne (10635): Vitesse du vent & gusts: 11.12.2018 07:00:00 - 17.12.2018 07:00:00 (CET)Kleiner Feldberg/Taunus, Allemagne (10635): Direction du vent: 11.12.2018 07:00:00 - 17.12.2018 07:00:00 (CET)Kleiner Feldberg/Taunus, Allemagne (10635): visibility: 11.12.2018 07:00:00 - 17.12.2018 07:00:00 (CET)Kleiner Feldberg/Taunus, Allemagne (10635): Ensoleillement: 11.12.2018 07:00:00 - 17.12.2018 07:00:00 (CET)Kleiner Feldberg/Taunus, Allemagne (10635): Quantités de précipitations: 11.12.2018 07:00:00 - 17.12.2018 07:00:00 (CET)
Date & Time tt [°C] td [°C] tt 5cm [°C] tt -5cm [°C] tt -20cm [°C] tt -100cm [°C] ff [km/h] ff [knt] fx [km/h] fx [knt] dd vv [km] sd [min] rr [mm]
17.12.2018 07:00:00 - - - - - - - - - - - - - -
17.12.2018 06:00:00 -0,2 -0,2 -0,2 -0,1 0,7 4,3 14 8 27 14 SSW 0,1 0 0,0
17.12.2018 05:00:00 -0,1 -0,1 -0,2 -0,1 0,7 4,3 15 8 27 15 SSW 0,1 0 0,0
17.12.2018 04:00:00 -0,3 -0,3 -0,4 -0,1 0,7 4,3 13 7 23 13 SW 0,1 0 0,0
17.12.2018 03:00:00 -0,4 -0,4 -0,3 -0,1 0,7 4,3 14 7 23 12 SW 0,1 0 0,0
17.12.2018 02:00:00 -0,1 -0,1 -0,1 -0,2 0,7 4,3 10 5 19 11 SW 0,1 0 0,0
17.12.2018 01:00:00 -0,3 -0,3 -0,3 -0,2 0,7 4,3 7 4 16 9 W 0,1 0 0,0
17.12.2018 00:00:00 -0,3 -0,3 -0,3 -0,2 0,7 4,3 7 4 15 8 W 0,1 0 0,0
16.12.2018 23:00:00 -0,4 -0,4 -0,4 -0,2 0,7 4,4 8 4 16 9 W 0,1 0 0,0
16.12.2018 22:00:00 -0,6 -0,6 -0,6 -0,2 0,7 4,4 7 4 18 10 W 0,1 0 0,0
16.12.2018 21:00:00 -0,9 -0,9 -0,8 -0,2 0,7 4,4 8 5 17 9 W 0,1 0 0,0
16.12.2018 20:00:00 -1,4 -1,4 -1,4 -0,2 0,7 4,4 7 4 15 8 W 0,1 0 0,0
16.12.2018 19:00:00 -1,7 -1,7 -1,7 -0,2 0,7 4,4 9 5 20 11 W 0,1 0 0,0
16.12.2018 18:00:00 -1,9 -1,9 -1,9 -0,3 0,7 4,4 12 7 24 13 W 0,2 0 0,0
16.12.2018 17:00:00 -2,3 -2,3 -2,2 -0,3 0,7 4,4 14 7 27 14 W 0,1 0 0,0
16.12.2018 16:00:00 -2,4 -2,6 -2,3 -0,3 0,7 4,4 13 7 23 12 W 0,2 0 0,4
16.12.2018 15:00:00 -1,7 -1,7 -1,4 -0,3 0,7 4,4 12 7 23 12 WNW 0,5 0 0,0
16.12.2018 14:00:00 -4,4 -4,8 -4,0 -0,3 0,7 4,4 11 6 23 12 W 0,4 0 0,0
16.12.2018 13:00:00 -4,8 -5,3 -4,4 -0,4 0,7 4,4 11 6 21 11 WSW 1,6 0 0,0
16.12.2018 12:00:00 -5,2 -5,8 -4,7 -0,4 0,7 4,4 11 6 23 13 SSW 1,8 0 0,0
16.12.2018 11:00:00 -5,7 -6,3 -5,4 -0,5 0,7 4,4 12 6 24 13 SSW 2,3 0 0,0
16.12.2018 10:00:00 -6,1 -6,7 -5,8 -0,5 0,7 4,4 13 7 27 14 S 2,1 0 0,1
16.12.2018 09:00:00 -6,7 -7,5 -6,4 -0,6 0,8 4,4 17 9 32 17 SSE 0,3 0 0,0
16.12.2018 08:00:00 -7,1 -8,0 -6,9 -0,6 0,8 4,4 24 13 36 19 SE 0,4 0 0,0
16.12.2018 07:00:00 -7,2 -8,1 -7,0 -0,6 0,8 4,5 26 14 35 19 ESE 1,5 0 0,5
16.12.2018 06:00:00 -7,4 -8,4 -7,1 -0,6 0,8 4,5 27 15 39 21 SE 0,7 0 0,3
16.12.2018 05:00:00 -7,5 -8,4 -7,2 -0,6 0,8 4,5 28 15 41 22 SE 4,8 0 0,0
16.12.2018 04:00:00 -7,4 -8,3 -7,2 -0,6 0,8 4,5 26 14 45 25 SE 5 0 0,0
16.12.2018 03:00:00 -7,5 -8,4 -7,3 -0,6 0,8 4,5 25 14 47 25 SE 5 0 0,0
16.12.2018 02:00:00 -7,5 -8,5 -7,4 -0,5 0,9 4,5 32 18 55 30 SE 6 0 0,0
16.12.2018 01:00:00 -7,4 -8,5 -7,3 -0,5 0,9 4,5 35 19 51 28 SE 7 0 0,0
16.12.2018 00:00:00 -7,1 -8,3 -7,1 -0,4 0,9 4,5 32 17 53 29 SE 7 0 0,0
15.12.2018 23:00:00 -7,0 -8,3 -7,0 -0,4 0,9 4,5 30 16 48 26 SE 8 0 0,0
15.12.2018 22:00:00 -6,9 -8,4 -7,0 -0,3 0,9 4,5 31 17 50 27 SE 9 0 0,0
15.12.2018 21:00:00 -6,8 -8,4 -6,9 -0,3 0,9 4,5 32 17 57 31 SE 11 0 0,0
15.12.2018 20:00:00 -6,7 -8,4 -6,8 -0,3 0,9 4,5 36 19 53 29 SE 11 0 0,0
15.12.2018 19:00:00 -6,5 -8,1 -6,5 -0,2 1,0 4,5 33 18 50 27 SE 10 0 0,0
15.12.2018 18:00:00 -6,3 -7,8 -6,3 -0,2 1,0 4,5 32 18 49 27 SE 9 0 0,0
15.12.2018 17:00:00 -6,2 -7,7 -6,1 -0,2 1,0 4,5 27 14 40 22 SE 10 0 0,0
15.12.2018 16:00:00 -6,1 -7,6 -6,0 -0,2 1,0 4,5 22 12 38 21 SE 10 0 0,0
15.12.2018 15:00:00 -6,0 -7,6 -5,7 -0,2 1,0 4,6 22 12 37 20 SE 11 0 0,0
15.12.2018 14:00:00 -6,0 -7,4 -5,7 -0,2 1,0 4,6 18 10 32 17 SE 9 0 0,0
15.12.2018 13:00:00 -6,0 -7,5 -5,8 -0,2 1,0 4,6 20 11 33 18 SE 12 0 0,0
15.12.2018 12:00:00 -6,0 -7,4 -5,7 -0,2 1,0 4,6 16 8 29 15 SE 12 0 0,0
15.12.2018 11:00:00 -6,2 -7,5 -5,9 -0,2 1,0 4,6 16 9 30 16 SE 10 0 0,0
15.12.2018 10:00:00 -6,2 -7,3 -6,0 -0,2 1,0 4,6 16 9 31 17 SE 8 0 0,0
15.12.2018 09:00:00 -6,3 -7,3 -6,1 -0,2 1,0 4,6 15 8 27 15 ESE 7 0 0,0
15.12.2018 08:00:00 -6,3 -7,2 -6,1 -0,2 1,0 4,6 13 7 27 15 ESE 6 0 0,0
15.12.2018 07:00:00 -6,2 -7,0 -6,0 -0,2 1,0 4,6 11 6 25 13 ESE 5 0 0,1
15.12.2018 06:00:00 -6,2 -7,0 -6,0 -0,1 1,1 4,6 13 7 22 12 ESE 4,3 0 0,0
15.12.2018 05:00:00 -6,2 -7,1 -6,0 -0,1 1,1 4,6 9 5 16 8 E 4,6 0 0,0
15.12.2018 04:00:00 -6,2 -7,0 -6,0 -0,1 1,1 4,6 10 5 21 11 ESE 3,2 0 0,0
15.12.2018 03:00:00 -6,2 -7,3 -5,9 -0,1 1,1 4,6 10 6 20 11 ESE 5 0 0,0
15.12.2018 02:00:00 -6,4 -7,8 -6,2 -0,1 1,1 4,6 11 6 20 11 ESE 8 0 0,0
15.12.2018 01:00:00 -6,4 -7,8 -6,2 -0,1 1,1 4,6 11 6 21 12 ESE 11 0 0,0
15.12.2018 00:00:00 -6,4 -8,1 -6,3 0,0 1,1 4,6 15 8 23 12 ESE 14 0 0,0
14.12.2018 23:00:00 -6,4 -8,0 -6,2 0,0 1,1 4,7 13 7 25 14 E 13 0 0,0
14.12.2018 22:00:00 -6,5 -8,2 -6,3 0,0 1,1 4,7 9 5 26 14 ESE 15 0 0,0
14.12.2018 21:00:00 -6,6 -8,3 -6,4 0,0 1,1 4,7 11 6 28 15 ESE 15 0 0,0
14.12.2018 20:00:00 -6,7 -8,5 -6,5 0,0 1,1 4,7 15 8 31 17 ESE 14 0 0,0
14.12.2018 19:00:00 -6,6 -8,3 -6,5 0,0 1,2 4,7 17 9 29 16 ESE 13 0 0,0
14.12.2018 18:00:00 -6,5 -8,2 -6,3 0,0 1,2 4,7 15 8 29 16 E 14 0 0,0
14.12.2018 17:00:00 -6,2 -7,6 -6,0 0,1 1,2 4,7 14 8 26 14 E 10 0 0,0
14.12.2018 16:00:00 -5,9 -7,3 -5,7 0,1 1,2 4,7 13 7 27 15 E 10 0 0,0
14.12.2018 15:00:00 -5,8 -7,3 -5,5 0,1 1,2 4,7 14 8 30 16 ESE 9 0 0,0
14.12.2018 14:00:00 -5,9 -7,7 -5,6 0,1 1,2 4,7 18 10 30 16 E 16 0 0,0
14.12.2018 13:00:00 -5,8 -7,1 -5,4 0,1 1,2 4,7 14 7 25 14 E 9 0 0,0
14.12.2018 12:00:00 -5,8 -7,0 -5,4 0,1 1,2 4,7 14 8 25 14 E 8 0 0,0
14.12.2018 11:00:00 -5,8 -7,0 -5,5 0,1 1,2 4,7 14 7 29 15 E 4,9 0 0,0
14.12.2018 10:00:00 -6,0 -7,3 -5,6 0,1 1,2 4,7 14 8 32 17 E 7 0 0,0
14.12.2018 09:00:00 -6,1 -7,6 -5,9 0,1 1,2 4,7 18 10 32 18 E 11 0 0,0
14.12.2018 08:00:00 -6,0 -7,3 -5,8 0,1 1,2 4,7 16 9 31 17 E 11 0 0,0
14.12.2018 07:00:00 -6,1 -7,6 -5,9 0,1 1,3 4,8 16 9 36 19 E 14 0 0,0
14.12.2018 06:00:00 -6,1 -7,5 -5,9 0,1 1,3 4,8 19 10 35 19 E 11 0 0,0
14.12.2018 05:00:00 -6,1 -7,7 -5,9 0,1 1,3 4,8 15 8 32 17 E 14 0 0,0
14.12.2018 04:00:00 -6,0 -7,2 -5,8 0,1 1,3 4,8 13 7 29 16 E 12 0 0,0
14.12.2018 03:00:00 -5,9 -7,2 -5,7 0,1 1,3 4,8 15 8 37 20 E 14 0 0,0
14.12.2018 02:00:00 -5,8 -7,1 -5,6 0,1 1,3 4,8 16 9 34 19 E 14 0 0,0
14.12.2018 01:00:00 -5,8 -7,1 -5,6 0,2 1,3 4,8 17 9 41 22 E 14 0 0,0
14.12.2018 00:00:00 -5,7 -7,1 -5,7 0,2 1,4 4,8 22 12 36 19 E 15 0 0,0
13.12.2018 23:00:00 -5,7 -7,1 -5,5 0,2 1,4 4,8 20 11 36 19 E 13 0 0,0
13.12.2018 22:00:00 -5,5 -6,8 -5,4 0,2 1,4 4,8 19 10 35 19 E 13 0 0,0
13.12.2018 21:00:00 -5,4 -6,7 -5,2 0,2 1,4 4,8 14 8 32 17 E 13 0 0,0
13.12.2018 20:00:00 -5,4 -7,0 -5,3 0,2 1,4 4,8 18 10 36 19 E 16 0 0,0
13.12.2018 19:00:00 -5,4 -7,0 -5,4 0,2 1,4 4,8 20 11 41 22 E 18 0 0,0
13.12.2018 18:00:00 -5,3 -7,0 -5,6 0,2 1,4 4,8 23 12 44 24 E 19 0 0,0
13.12.2018 17:00:00 -5,2 -6,6 -5,7 0,2 1,4 4,8 22 12 41 22 E 19 0 0,0
13.12.2018 16:00:00 -5,0 -7,0 -4,8 0,3 1,4 4,8 20 11 40 22 ENE 23 52 0,0
13.12.2018 15:00:00 -4,5 -6,1 -3,8 0,3 1,4 4,9 16 9 38 20 E 21 35 0,0
13.12.2018 14:00:00 -4,6 -6,3 -3,4 0,3 1,4 4,9 22 12 39 21 E 12 33 0,0
13.12.2018 13:00:00 -4,5 -5,9 -3,3 0,3 1,4 4,9 17 9 37 20 E 13 31 0,0
13.12.2018 12:00:00 -4,6 -6,0 -3,0 0,3 1,4 4,9 17 9 43 23 E 14 52 0,0
13.12.2018 11:00:00 -4,6 -5,8 -2,8 0,3 1,4 4,9 18 10 43 23 E 11 45 0,0
13.12.2018 10:00:00 -4,9 -5,7 -4,2 0,3 1,4 4,9 21 11 44 24 E 8 1 0,0
13.12.2018 09:00:00 -5,2 -5,9 -5,0 0,2 1,5 4,9 19 10 40 21 E 8 0 0,0
13.12.2018 08:00:00 -5,2 -6,0 -5,4 0,3 1,5 4,9 25 14 43 23 E 10 0 0,0
13.12.2018 07:00:00 -4,7 -5,4 -4,9 0,3 1,5 4,9 19 10 35 19 E 10 0 0,0
13.12.2018 06:00:00 -3,9 -4,4 -3,8 0,3 1,5 4,9 19 10 34 18 E 4,4 0 0,0
13.12.2018 05:00:00 -3,4 -3,8 -3,3 0,3 1,5 4,9 19 10 35 19 E 1,4 0 0,0
13.12.2018 04:00:00 -3,2 -3,8 -3,1 0,3 1,5 4,9 13 7 34 18 ENE 10 0 0,0
13.12.2018 03:00:00 -3,7 -4,6 -3,7 0,3 1,5 4,9 16 9 30 16 E 26 0 0,0
13.12.2018 02:00:00 -2,8 -3,1 -2,9 0,4 1,5 4,9 21 12 37 20 E 0,3 0 0,0
13.12.2018 01:00:00 -2,4 -2,7 -2,3 0,4 1,5 4,9 18 10 34 19 E 0,1 0 0,0
13.12.2018 00:00:00 -2,3 -2,6 -2,2 0,4 1,5 5,0 13 7 27 15 E 0,7 0 0,0
12.12.2018 23:00:00 -2,3 -2,6 -2,3 0,4 1,5 5,0 16 8 29 16 E 3,1 0 0,0
12.12.2018 22:00:00 -2,4 -2,8 -2,4 0,4 1,5 5,0 13 7 29 16 E 11 0 0,0
12.12.2018 21:00:00 -2,4 -2,8 -2,3 0,3 1,5 5,0 17 9 38 21 ENE 12 0 0,0
12.12.2018 20:00:00 -2,6 -3,2 -2,6 0,3 1,5 5,0 18 10 43 23 ENE 29 0 0,0
12.12.2018 19:00:00 -2,6 -3,3 -2,6 0,3 1,5 5,0 21 11 35 19 ENE 38 0 0,0
12.12.2018 18:00:00 -2,2 -2,6 -2,1 0,4 1,6 5,0 22 12 38 20 ENE 4,2 0 0,1
12.12.2018 17:00:00 -2,2 -2,6 -2,1 0,4 1,6 5,0 17 9 32 18 NE 7 0 0,0
12.12.2018 16:00:00 -2,2 -2,6 -2,3 0,4 1,6 5,0 19 11 32 18 NE 8 4 0,0
12.12.2018 15:00:00 -1,9 -2,4 -1,8 0,4 1,6 5,0 11 6 24 13 NE 11 50 0,0
12.12.2018 14:00:00 -1,9 -2,6 -1,4 0,5 1,6 5,0 9 5 21 12 NNE 12 17 0,0
12.12.2018 13:00:00 -1,8 -2,3 -1,0 0,5 1,6 5,0 10 6 26 14 NNE 6 0 0,0
12.12.2018 12:00:00 -2,1 -2,7 -1,5 0,4 1,6 5,1 14 8 29 15 NNE 10 0 0,0
12.12.2018 11:00:00 -2,6 -3,3 -2,7 0,3 1,6 5,1 16 8 31 17 NE 17 20 0,0
12.12.2018 10:00:00 -2,7 -3,1 -3,1 0,3 1,6 5,1 21 12 33 18 NE 9 0 0,0
12.12.2018 09:00:00 -2,9 -3,7 -3,6 0,4 1,6 5,1 19 10 29 16 NNE 50 0 0,0
12.12.2018 08:00:00 -2,6 -3,3 -3,2 0,5 1,6 5,1 20 11 28 15 NE 39 0 0,0
12.12.2018 07:00:00 -1,7 -1,9 -1,6 0,5 1,6 5,1 13 7 24 13 NNE 0,3 0 0,0
12.12.2018 06:00:00 -1,5 -1,7 -1,3 0,5 1,6 5,1 13 7 24 13 N 0,2 0 0,0
12.12.2018 05:00:00 -1,5 -1,7 -1,6 0,4 1,6 5,1 14 8 24 13 N 0,4 0 0,0
12.12.2018 04:00:00 -1,5 -1,7 -1,8 0,4 1,6 5,1 13 7 21 12 N 0,3 0 0,0
12.12.2018 03:00:00 -1,1 -1,3 -1,1 0,4 1,6 5,1 10 5 21 11 NNW 0,1 0 0,0
12.12.2018 02:00:00 -1,0 -1,0 -0,9 0,4 1,6 5,2 8 4 19 11 NNW 0,1 0 0,0
12.12.2018 01:00:00 -1,0 -1,1 -0,9 0,4 1,6 5,2 10 5 26 14 NW 0,1 0 0,0
12.12.2018 00:00:00 -1,0 -1,0 -0,9 0,4 1,6 5,2 9 5 22 12 NW 0,1 0 0,0
11.12.2018 23:00:00 -1,0 -1,0 -0,9 0,4 1,6 5,2 8 5 22 12 NW 0,1 0 0,0
11.12.2018 22:00:00 -1,1 -1,2 -1,0 0,4 1,6 5,2 11 6 24 13 NW 0,2 0 0,0
11.12.2018 21:00:00 -1,0 -1,0 -1,0 0,4 1,6 5,2 11 6 32 17 NW 0,1 0 0,0
11.12.2018 20:00:00 -1,1 -1,1 -1,0 0,4 1,7 5,2 8 5 24 13 NW 0,1 0 0,0
11.12.2018 19:00:00 -1,0 -1,1 -0,9 0,4 1,7 5,2 10 5 23 12 NW 0,1 0 0,0
11.12.2018 18:00:00 -1,1 -1,2 -1,0 0,4 1,7 5,3 13 7 29 16 NW 0,1 0 0,0
11.12.2018 17:00:00 -1,2 -1,2 -1,1 0,4 1,7 5,3 13 7 31 17 NW 0,1 0 0,0
11.12.2018 16:00:00 -1,0 -1,0 -1,0 0,4 1,7 5,3 13 7 36 19 NW 0,2 0 0,0
11.12.2018 15:00:00 -1,0 -1,1 -0,9 0,4 1,7 5,3 13 7 31 17 NW 0,1 0 0,0
11.12.2018 14:00:00 -1,2 -1,4 -1,0 0,4 1,7 5,3 14 8 37 20 NW 0,2 0 0,1
11.12.2018 13:00:00 -1,0 -1,1 -0,8 0,4 1,7 5,3 13 7 37 20 NW 0,1 0 0,8
11.12.2018 12:00:00 -1,0 -1,1 -0,8 0,4 1,7 5,3 15 8 36 19 WNW 0,1 0 0,0
11.12.2018 11:00:00 -1,2 -1,3 -1,1 0,4 1,8 5,4 16 9 40 21 WNW 0,1 0 0,0
11.12.2018 10:00:00 -1,2 -1,3 -1,1 0,4 1,8 5,4 15 8 41 22 NW 0,1 0 0,0
11.12.2018 09:00:00 -1,3 -1,3 -1,2 0,4 1,8 5,4 17 9 35 19 NW 0,1 0 0,4
11.12.2018 08:00:00 -1,1 -1,2 -1,1 0,4 1,8 5,4 17 9 41 22 NW 0,1 0 0,0
11.12.2018 07:00:00 -1,0 -1,0 -1,0 0,4 1,8 5,4 17 9 45 24 NW 0,1 0 0,1

tt = Température de l'air
td = dewpoint
tt 5cm = Température de l'air 5cm
tt -5cm = Température de l'air -5cm
tt -20cm = Température de l'air -20cm
tt -100cm = Température de l'air -100cm
ff = Vitesse du vent
fx = gusts
dd = Direction du vent
vv = visibility
sd = Ensoleillement
rr = Quantités de précipitations

stations d'obs. à proximité